Time;durP1;ratioP1;P1;durP2;ratioP2;P2;SDS_P1;SDS_P2;PMS_P1;PMS_P2;Temp;Humidity;BMP_temperature;BMP_pressure;BME280_temperature;BME280_humidity;BME280_pressure;Samples;Min_cycle;Max_cycle;Signal;HPM_P1;HPM_P2
2021/05/27 00:00:16;;;;;;;17.55;3.15;;;;;;;;;;4907215;29;20506;-60
2021/05/27 00:02:44;;;;;;;11.50;2.90;;;;;;;;;;4908223;29;20043;-60
2021/05/27 00:05:11;;;;;;;15.80;3.47;;;;;;;;;;4878592;29;20040;-60
2021/05/27 00:07:37;;;;;;;9.10;2.92;;;;;;;;;;4908653;29;20054;-61
2021/05/27 00:10:07;;;;;;;6.78;2.70;;;;;;;;;;4897590;29;20595;-62
2021/05/27 00:12:34;;;;;;;8.27;2.83;;;;;;;;;;4920058;28;20098;-60
2021/05/27 00:15:03;;;;;;;7.40;3.35;;;;;;;;;;4905992;29;20054;-60
2021/05/27 00:17:29;;;;;;;13.43;3.28;;;;;;;;;;4906948;29;20050;-60
2021/05/27 00:19:54;;;;;;;11.80;2.90;;;;;;;;;;4909246;29;20036;-60
2021/05/27 00:22:20;;;;;;;12.88;3.13;;;;;;;;;;4908570;29;20028;-62
2021/05/27 00:24:48;;;;;;;5.15;2.65;;;;;;;;;;4909477;29;20499;-60
2021/05/27 00:27:22;;;;;;;9.95;2.88;;;;;;;;;;4906951;29;20064;-62
2021/05/27 00:29:47;;;;;;;13.25;3.47;;;;;;;;;;4893010;29;20135;-62
2021/05/27 00:32:18;;;;;;;7.70;2.85;;;;;;;;;;4904318;29;20419;-62
2021/05/27 00:34:49;;;;;;;24.83;4.03;;;;;;;;;;4923078;28;20099;-60
2021/05/27 00:37:17;;;;;;;16.17;3.17;;;;;;;;;;4904038;29;20578;-62
2021/05/27 00:39:43;;;;;;;9.70;3.15;;;;;;;;;;4908727;29;20479;-62
2021/05/27 00:42:11;;;;;;;13.07;3.30;;;;;;;;;;4905678;29;20043;-60
2021/05/27 00:44:38;;;;;;;12.65;3.45;;;;;;;;;;4906685;29;20027;-61
2021/05/27 00:47:08;;;;;;;9.95;3.97;;;;;;;;;;4903867;29;20072;-59
2021/05/27 00:49:34;;;;;;;12.82;3.58;;;;;;;;;;4907534;29;20058;-59
2021/05/27 00:52:02;;;;;;;9.93;3.33;;;;;;;;;;4903444;29;20039;-60
2021/05/27 00:54:30;;;;;;;10.40;3.88;;;;;;;;;;4907514;29;20038;-61
2021/05/27 00:56:55;;;;;;;8.35;3.80;;;;;;;;;;4906112;29;20672;-60
2021/05/27 00:59:21;;;;;;;9.10;3.60;;;;;;;;;;4908269;29;20027;-63
2021/05/27 01:01:51;;;;;;;11.75;3.53;;;;;;;;;;4905132;29;20119;-60
2021/05/27 01:04:19;;;;;;;14.35;3.90;;;;;;;;;;4907121;29;20055;-60
2021/05/27 01:06:48;;;;;;;17.92;5.40;;;;;;;;;;4904054;29;20036;-60
2021/05/27 01:09:16;;;;;;;11.57;4.30;;;;;;;;;;4908152;29;20106;-61
2021/05/27 01:11:47;;;;;;;12.23;4.00;;;;;;;;;;4906050;29;20040;-60
2021/05/27 01:17:05;;;;;;;15.38;3.83;;;;;;;;;;4919191;28;20035;-61
2021/05/27 01:19:31;;;;;;;11.23;3.63;;;;;;;;;;4921970;28;20831;-60
2021/05/27 01:21:59;;;;;;;10.73;3.50;;;;;;;;;;4904815;29;20047;-60
2021/05/27 01:24:25;;;;;;;13.48;3.42;;;;;;;;;;4902784;29;20036;-60
2021/05/27 01:26:50;;;;;;;11.27;3.17;;;;;;;;;;4906087;29;20024;-60
2021/05/27 01:29:16;;;;;;;10.07;2.90;;;;;;;;;;4903213;29;20028;-61
2021/05/27 01:31:44;;;;;;;16.63;3.63;;;;;;;;;;4890325;29;20031;-61
2021/05/27 01:34:14;;;;;;;19.00;4.30;;;;;;;;;;4906540;29;20028;-60
2021/05/27 01:36:43;;;;;;;11.10;3.30;;;;;;;;;;4905267;29;20023;-62
2021/05/27 01:39:11;;;;;;;20.65;3.65;;;;;;;;;;4906390;29;20036;-62
2021/05/27 01:41:38;;;;;;;17.23;4.65;;;;;;;;;;4906151;29;20039;-60
2021/05/27 01:44:07;;;;;;;12.48;3.72;;;;;;;;;;4890170;29;20032;-60
2021/05/27 01:46:35;;;;;;;20.65;3.85;;;;;;;;;;4903669;29;20205;-62
2021/05/27 01:49:03;;;;;;;19.77;4.35;;;;;;;;;;4919690;28;20439;-61
2021/05/27 01:51:28;;;;;;;9.73;4.15;;;;;;;;;;4907037;29;20784;-61
2021/05/27 01:53:54;;;;;;;14.85;4.07;;;;;;;;;;4905328;29;20028;-61
2021/05/27 01:56:22;;;;;;;22.17;4.72;;;;;;;;;;4921050;28;20732;-61
2021/05/27 01:58:48;;;;;;;14.65;3.88;;;;;;;;;;4908074;29;20055;-60
2021/05/27 02:01:14;;;;;;;17.85;4.50;;;;;;;;;;4911631;29;20051;-59
2021/05/27 02:03:40;;;;;;;22.45;4.45;;;;;;;;;;4910102;29;20142;-60
2021/05/27 02:06:05;;;;;;;16.10;4.45;;;;;;;;;;4893942;29;20736;-59
2021/05/27 02:08:31;;;;;;;9.82;2.88;;;;;;;;;;4909675;29;20032;-60
2021/05/27 02:11:02;;;;;;;9.70;3.50;;;;;;;;;;4895156;29;20039;-63
2021/05/27 02:13:32;;;;;;;18.63;3.08;;;;;;;;;;4909113;29;20044;-62
2021/05/27 02:15:57;;;;;;;7.90;2.80;;;;;;;;;;4900952;29;20048;-62
2021/05/27 02:18:23;;;;;;;13.45;3.00;;;;;;;;;;4908332;29;20120;-60
2021/05/27 02:20:51;;;;;;;10.88;3.20;;;;;;;;;;4895004;29;20035;-60
2021/05/27 02:23:16;;;;;;;13.85;3.13;;;;;;;;;;4898754;29;20035;-59
2021/05/27 02:25:42;;;;;;;15.65;3.05;;;;;;;;;;4909288;29;20110;-59
2021/05/27 02:28:07;;;;;;;11.00;2.60;;;;;;;;;;4907343;29;20636;-60
2021/05/27 02:30:37;;;;;;;8.05;2.70;;;;;;;;;;4908857;29;20523;-62
2021/05/27 02:33:02;;;;;;;8.30;2.50;;;;;;;;;;4893009;29;20039;-61
2021/05/27 02:35:34;;;;;;;10.00;2.25;;;;;;;;;;4905255;29;20354;-61
2021/05/27 02:38:00;;;;;;;22.85;2.80;;;;;;;;;;4909617;29;20048;-60
2021/05/27 02:40:28;;;;;;;7.47;2.22;;;;;;;;;;4908699;29;20042;-60
2021/05/27 02:42:56;;;;;;;12.30;2.75;;;;;;;;;;4895232;29;20399;-60
2021/05/27 02:45:24;;;;;;;16.40;3.15;;;;;;;;;;4891020;29;20040;-59
2021/05/27 02:47:52;;;;;;;4.75;1.98;;;;;;;;;;4909999;29;20999;-59
2021/05/27 02:50:23;;;;;;;11.68;2.35;;;;;;;;;;4908414;29;20035;-59
2021/05/27 02:52:49;;;;;;;6.95;2.55;;;;;;;;;;4909872;29;21093;-59
2021/05/27 02:55:14;;;;;;;8.60;1.63;;;;;;;;;;4910345;29;20085;-58
2021/05/27 02:57:40;;;;;;;8.20;2.10;;;;;;;;;;4910289;29;20618;-59
2021/05/27 03:00:07;;;;;;;6.93;2.63;;;;;;;;;;4893545;29;20106;-59
2021/05/27 03:02:33;;;;;;;9.05;3.00;;;;;;;;;;4908910;29;20032;-62
2021/05/27 03:05:00;;;;;;;5.78;2.33;;;;;;;;;;4909837;29;20110;-60
2021/05/27 03:07:28;;;;;;;7.50;1.83;;;;;;;;;;4908257;29;20044;-60
2021/05/27 03:09:56;;;;;;;12.43;3.10;;;;;;;;;;4905951;29;22115;-60
2021/05/27 03:12:21;;;;;;;10.15;2.53;;;;;;;;;;4907291;29;20032;-60
2021/05/27 03:14:47;;;;;;;9.82;2.42;;;;;;;;;;4920360;28;20176;-61
2021/05/27 03:17:13;;;;;;;9.07;2.42;;;;;;;;;;4910203;29;20047;-60
2021/05/27 03:19:40;;;;;;;5.45;2.20;;;;;;;;;;4907178;29;20036;-60
2021/05/27 03:22:11;;;;;;;4.50;1.75;;;;;;;;;;4908730;29;20063;-62
2021/05/27 03:24:37;;;;;;;7.78;2.63;;;;;;;;;;4908000;29;20051;-60
2021/05/27 03:27:02;;;;;;;10.75;2.42;;;;;;;;;;4922399;28;20032;-62
2021/05/27 03:29:28;;;;;;;8.23;2.25;;;;;;;;;;4909854;29;20045;-59
2021/05/27 03:31:54;;;;;;;17.83;2.63;;;;;;;;;;4909183;29;20043;-59
2021/05/27 03:34:22;;;;;;;4.07;1.77;;;;;;;;;;4907490;29;20036;-61
2021/05/27 03:36:50;;;;;;;9.23;2.03;;;;;;;;;;4907891;29;20031;-60
2021/05/27 03:39:17;;;;;;;6.55;2.05;;;;;;;;;;4907813;29;20074;-60
2021/05/27 03:41:43;;;;;;;11.80;2.25;;;;;;;;;;4908343;29;20040;-60
2021/05/27 03:44:11;;;;;;;9.98;2.60;;;;;;;;;;4922341;28;20083;-60
2021/05/27 03:46:37;;;;;;;17.20;2.92;;;;;;;;;;4907181;29;20051;-59
2021/05/27 03:49:05;;;;;;;9.55;2.33;;;;;;;;;;4908916;29;20036;-60
2021/05/27 03:51:31;;;;;;;10.07;2.80;;;;;;;;;;4907113;29;20807;-58
2021/05/27 03:53:57;;;;;;;10.70;2.70;;;;;;;;;;4908338;29;20033;-62
2021/05/27 03:56:23;;;;;;;5.63;2.50;;;;;;;;;;4908396;29;22213;-61
2021/05/27 04:01:33;;;;;;;8.57;2.47;;;;;;;;;;4908290;29;20039;-60
2021/05/27 04:09:32;;;;;;;4.82;1.95;;;;;;;;;;4908008;29;20161;-60
2021/05/27 04:14:43;;;;;;;10.90;2.63;;;;;;;;;;4907491;29;20099;-60
2021/05/27 04:17:13;;;;;;;11.15;2.95;;;;;;;;;;4920510;28;20040;-62
2021/05/27 04:19:38;;;;;;;15.13;2.95;;;;;;;;;;4906193;29;20059;-58
2021/05/27 04:22:03;;;;;;;7.00;2.50;;;;;;;;;;4907027;29;21275;-60
2021/05/27 04:24:31;;;;;;;7.57;2.50;;;;;;;;;;4907939;29;20027;-60
2021/05/27 04:26:59;;;;;;;11.07;2.40;;;;;;;;;;4902899;29;20081;-59
2021/05/27 04:29:25;;;;;;;7.50;2.88;;;;;;;;;;4892419;29;20107;-62
2021/05/27 04:31:53;;;;;;;8.35;2.78;;;;;;;;;;4905051;29;20036;-61
2021/05/27 04:34:21;;;;;;;12.50;3.35;;;;;;;;;;4905492;29;20072;-60
2021/05/27 04:36:49;;;;;;;14.25;3.10;;;;;;;;;;4904915;29;20519;-61
2021/05/27 04:39:15;;;;;;;10.57;2.95;;;;;;;;;;4888023;29;20047;-59
2021/05/27 04:41:40;;;;;;;9.77;2.60;;;;;;;;;;4908210;29;21073;-59
2021/05/27 04:44:07;;;;;;;11.05;2.40;;;;;;;;;;4908115;29;20039;-60
2021/05/27 04:46:35;;;;;;;12.70;3.45;;;;;;;;;;4905165;29;20050;-59
2021/05/27 04:49:01;;;;;;;16.15;3.38;;;;;;;;;;4912129;29;20051;-60
2021/05/27 04:51:29;;;;;;;8.63;3.08;;;;;;;;;;4906597;29;20142;-61
2021/05/27 04:53:55;;;;;;;11.27;3.33;;;;;;;;;;4907923;29;20798;-60
2021/05/27 04:56:21;;;;;;;11.32;3.00;;;;;;;;;;4905078;29;20036;-59
2021/05/27 04:58:47;;;;;;;7.85;2.72;;;;;;;;;;4918421;28;20048;-59
2021/05/27 05:01:12;;;;;;;7.63;2.47;;;;;;;;;;4891648;29;20028;-61
2021/05/27 05:03:40;;;;;;;7.13;2.58;;;;;;;;;;4903847;29;20032;-60
2021/05/27 05:06:06;;;;;;;7.32;2.60;;;;;;;;;;4905724;29;20373;-60
2021/05/27 05:08:31;;;;;;;13.32;3.33;;;;;;;;;;4920230;28;20134;-62
2021/05/27 05:11:00;;;;;;;12.10;2.80;;;;;;;;;;4912984;29;20066;-62
2021/05/27 05:13:28;;;;;;;13.20;2.92;;;;;;;;;;4896799;29;20042;-59
2021/05/27 05:15:56;;;;;;;17.00;3.78;;;;;;;;;;4905350;29;20040;-62
2021/05/27 05:18:25;;;;;;;9.85;3.33;;;;;;;;;;4905312;29;20035;-59
2021/05/27 05:20:52;;;;;;;10.13;3.42;;;;;;;;;;4905547;29;20059;-60
2021/05/27 05:23:20;;;;;;;12.32;3.25;;;;;;;;;;4904940;29;20040;-60
2021/05/27 05:25:48;;;;;;;8.38;2.92;;;;;;;;;;4908899;29;20059;-60
2021/05/27 05:28:14;;;;;;;5.15;2.65;;;;;;;;;;4905889;29;20040;-59
2021/05/27 05:30:40;;;;;;;9.55;2.78;;;;;;;;;;4911740;28;20046;-59
2021/05/27 05:33:06;;;;;;;11.27;2.90;;;;;;;;;;4908820;29;20039;-60
2021/05/27 05:35:34;;;;;;;9.10;3.40;;;;;;;;;;4908365;29;20111;-60
2021/05/27 05:38:00;;;;;;;20.42;3.42;;;;;;;;;;4910437;29;20148;-60
2021/05/27 05:40:27;;;;;;;10.40;3.47;;;;;;;;;;4921003;28;20186;-59
2021/05/27 05:42:53;;;;;;;16.95;3.47;;;;;;;;;;4908242;29;20028;-61
2021/05/27 05:45:21;;;;;;;12.30;3.33;;;;;;;;;;4909678;29;20060;-60
2021/05/27 05:47:50;;;;;;;8.50;2.60;;;;;;;;;;4924629;29;20044;-60
2021/05/27 05:53:06;;;;;;;13.45;2.67;;;;;;;;;;4908531;29;20043;-61
2021/05/27 05:55:32;;;;;;;7.65;2.95;;;;;;;;;;4909303;29;20067;-60
2021/05/27 05:57:58;;;;;;;11.25;3.40;;;;;;;;;;4909623;29;20059;-59
2021/05/27 06:00:23;;;;;;;7.35;3.08;;;;;;;;;;4909649;29;20087;-60
2021/05/27 06:02:48;;;;;;;12.50;3.08;;;;;;;;;;4922879;28;20070;-60
2021/05/27 06:05:16;;;;;;;12.02;3.58;;;;;;;;;;4908162;29;20032;-63
2021/05/27 06:07:41;;;;;;;9.95;2.58;;;;;;;;;;4908456;29;20043;-60
2021/05/27 06:10:07;;;;;;;9.02;2.78;;;;;;;;;;4908260;29;20051;-62
2021/05/27 06:12:33;;;;;;;9.52;2.20;;;;;;;;;;4908937;29;20052;-61
2021/05/27 06:14:58;;;;;;;3.15;1.90;;;;;;;;;;4907224;29;20047;-60
2021/05/27 06:17:26;;;;;;;9.43;2.17;;;;;;;;;;4910226;29;20046;-61
2021/05/27 06:19:54;;;;;;;4.72;2.15;;;;;;;;;;4908723;29;20039;-60
2021/05/27 06:22:19;;;;;;;5.53;2.38;;;;;;;;;;4921209;29;20043;-61
2021/05/27 06:24:48;;;;;;;4.72;1.95;;;;;;;;;;4908895;29;20031;-60
2021/05/27 06:27:14;;;;;;;2.47;1.15;;;;;;;;;;4907258;29;20032;-60
2021/05/27 06:29:42;;;;;;;9.85;2.00;;;;;;;;;;4909435;29;20036;-63
2021/05/27 06:32:10;;;;;;;6.80;1.63;;;;;;;;;;4907627;29;20028;-62
2021/05/27 06:34:36;;;;;;;6.15;1.92;;;;;;;;;;4907339;29;20039;-60
2021/05/27 06:37:03;;;;;;;5.47;1.75;;;;;;;;;;4906645;29;20039;-62
2021/05/27 06:39:29;;;;;;;1.92;1.40;;;;;;;;;;4908353;29;20063;-61
2021/05/27 06:41:58;;;;;;;4.38;1.40;;;;;;;;;;4907288;29;20028;-60
2021/05/27 06:44:24;;;;;;;9.18;1.70;;;;;;;;;;4923650;28;20111;-59
2021/05/27 06:46:50;;;;;;;4.78;1.50;;;;;;;;;;4888769;29;20111;-62
2021/05/27 06:49:15;;;;;;;3.70;1.00;;;;;;;;;;4907569;29;21001;-61
2021/05/27 06:51:43;;;;;;;3.42;0.82;;;;;;;;;;4906935;29;20084;-64
2021/05/27 06:54:09;;;;;;;1.80;0.95;;;;;;;;;;4909676;29;20036;-60
2021/05/27 06:56:34;;;;;;;1.15;0.75;;;;;;;;;;4922387;28;21738;-59
2021/05/27 06:59:01;;;;;;;3.35;1.05;;;;;;;;;;4905038;29;20559;-59
2021/05/27 07:01:26;;;;;;;2.38;0.70;;;;;;;;;;4922626;28;20028;-60
2021/05/27 07:03:58;;;;;;;0.82;0.73;;;;;;;;;;4908289;29;20036;-59
2021/05/27 07:06:23;;;;;;;4.97;1.27;;;;;;;;;;4894024;29;20042;-59
2021/05/27 07:08:49;;;;;;;3.28;0.50;;;;;;;;;;4913479;29;20433;-60
2021/05/27 07:11:15;;;;;;;4.32;1.00;;;;;;;;;;4902823;29;20589;-60
2021/05/27 07:13:42;;;;;;;6.45;1.05;;;;;;;;;;4906292;29;20032;-60
2021/05/27 07:16:11;;;;;;;1.88;0.60;;;;;;;;;;4904567;29;20743;-59
2021/05/27 07:18:37;;;;;;;1.55;0.80;;;;;;;;;;4892586;29;20070;-60
2021/05/27 07:21:02;;;;;;;4.07;1.00;;;;;;;;;;4887973;29;20036;-60
2021/05/27 07:23:31;;;;;;;1.10;0.43;;;;;;;;;;4902368;29;20097;-60
2021/05/27 07:26:00;;;;;;;1.88;0.40;;;;;;;;;;4905526;29;20964;-61
2021/05/27 07:28:26;;;;;;;4.22;0.70;;;;;;;;;;4905735;29;20028;-59
2021/05/27 07:30:52;;;;;;;5.35;1.02;;;;;;;;;;4903974;29;20067;-60
2021/05/27 07:33:20;;;;;;;2.33;0.55;;;;;;;;;;4902513;29;20036;-60
2021/05/27 07:35:46;;;;;;;3.53;0.85;;;;;;;;;;4891111;29;20036;-63
2021/05/27 07:38:16;;;;;;;7.65;0.98;;;;;;;;;;4888264;29;20170;-60
2021/05/27 07:40:47;;;;;;;6.60;0.77;;;;;;;;;;4906389;29;20090;-61
2021/05/27 07:43:15;;;;;;;4.22;0.73;;;;;;;;;;4903706;29;20046;-60
2021/05/27 07:45:41;;;;;;;5.75;1.05;;;;;;;;;;4902545;29;20516;-61
2021/05/27 07:48:07;;;;;;;4.18;1.25;;;;;;;;;;4906066;29;20031;-60
2021/05/27 07:50:35;;;;;;;7.38;1.10;;;;;;;;;;4907734;29;20063;-60
2021/05/27 07:53:01;;;;;;;3.60;1.00;;;;;;;;;;4905394;29;20780;-60
2021/05/27 07:55:27;;;;;;;4.60;0.52;;;;;;;;;;4907856;29;20032;-60
2021/05/27 07:57:54;;;;;;;7.75;1.33;;;;;;;;;;4906873;29;20066;-60
2021/05/27 08:00:23;;;;;;;5.05;0.90;;;;;;;;;;4906945;29;20126;-61
2021/05/27 08:02:49;;;;;;;7.53;0.93;;;;;;;;;;4887613;29;20044;-60
2021/05/27 08:05:19;;;;;;;8.82;1.13;;;;;;;;;;4903238;29;20135;-61
2021/05/27 08:07:52;;;;;;;8.88;1.23;;;;;;;;;;4907373;29;20028;-62
2021/05/27 08:10:23;;;;;;;9.43;1.13;;;;;;;;;;4907779;29;20063;-61
2021/05/27 08:12:51;;;;;;;7.28;1.05;;;;;;;;;;4907015;29;20039;-62
2021/05/27 08:15:22;;;;;;;16.63;1.45;;;;;;;;;;4905412;29;20036;-62
2021/05/27 08:17:53;;;;;;;6.55;1.60;;;;;;;;;;4905028;29;20040;-60
2021/05/27 08:20:18;;;;;;;8.68;1.40;;;;;;;;;;4922402;28;20057;-61
2021/05/27 08:22:44;;;;;;;11.40;2.00;;;;;;;;;;4917232;28;20043;-60
2021/05/27 08:25:13;;;;;;;12.60;1.50;;;;;;;;;;4907780;29;20118;-61
2021/05/27 08:27:40;;;;;;;6.03;1.20;;;;;;;;;;4906037;29;20051;-59
2021/05/27 08:30:07;;;;;;;9.27;1.52;;;;;;;;;;4904940;29;20106;-61
2021/05/27 08:32:36;;;;;;;7.30;1.20;;;;;;;;;;4906024;29;20036;-60
2021/05/27 08:35:03;;;;;;;9.68;1.52;;;;;;;;;;4911246;29;20054;-59
2021/05/27 08:37:31;;;;;;;8.23;1.52;;;;;;;;;;4907379;29;20043;-60
2021/05/27 08:40:00;;;;;;;14.15;2.25;;;;;;;;;;4914747;28;20058;-60
2021/05/27 08:42:27;;;;;;;7.55;1.70;;;;;;;;;;4890162;29;20103;-62
2021/05/27 08:44:55;;;;;;;12.00;1.52;;;;;;;;;;4907194;29;20035;-62
2021/05/27 08:47:21;;;;;;;7.53;1.42;;;;;;;;;;4906224;29;20036;-60
2021/05/27 08:49:49;;;;;;;11.85;2.05;;;;;;;;;;4907806;29;20055;-60
2021/05/27 08:52:15;;;;;;;12.43;1.98;;;;;;;;;;4905644;29;20050;-63
2021/05/27 08:54:41;;;;;;;8.82;2.00;;;;;;;;;;4907236;29;20035;-60
2021/05/27 08:57:07;;;;;;;18.45;1.88;;;;;;;;;;4903468;29;20050;-61
2021/05/27 08:59:35;;;;;;;5.65;1.30;;;;;;;;;;4908685;29;20483;-59
2021/05/27 09:02:09;;;;;;;15.65;2.15;;;;;;;;;;4889203;29;20594;-61
2021/05/27 09:04:43;;;;;;;12.45;1.63;;;;;;;;;;4905213;29;20043;-61
2021/05/27 09:07:12;;;;;;;12.30;1.90;;;;;;;;;;4903858;29;20047;-60
2021/05/27 09:09:54;;;;;;;6.85;0.95;;;;;;;;;;4905665;29;20039;-60
2021/05/27 09:12:30;;;;;;;10.77;1.30;;;;;;;;;;4925057;28;20123;-61
2021/05/27 09:14:59;;;;;;;12.27;1.95;;;;;;;;;;4911220;29;20239;-64
2021/05/27 09:17:25;;;;;;;8.55;1.30;;;;;;;;;;4909306;29;20047;-62
2021/05/27 09:20:12;;;;;;;3.00;0.80;;;;;;;;;;4909872;29;21080;-59
2021/05/27 09:22:41;;;;;;;6.35;1.30;;;;;;;;;;4910298;29;20030;-60
2021/05/27 09:25:08;;;;;;;9.05;1.42;;;;;;;;;;4924732;28;20035;-60
2021/05/27 09:27:46;;;;;;;8.48;1.30;;;;;;;;;;4909443;29;20055;-61
2021/05/27 09:30:15;;;;;;;2.53;0.90;;;;;;;;;;4909301;29;20327;-62
2021/05/27 09:32:52;;;;;;;9.05;1.05;;;;;;;;;;4909398;29;20050;-64
2021/05/27 09:35:18;;;;;;;8.98;1.17;;;;;;;;;;4907794;29;20039;-61
2021/05/27 09:37:52;;;;;;;7.00;0.93;;;;;;;;;;4908300;29;20048;-61
2021/05/27 09:40:38;;;;;;;6.28;1.58;;;;;;;;;;4908630;29;20142;-63
2021/05/27 09:43:06;;;;;;;3.60;0.80;;;;;;;;;;4907871;29;20035;-61
2021/05/27 09:45:36;;;;;;;5.25;1.17;;;;;;;;;;4907518;29;20031;-61
2021/05/27 09:48:24;;;;;;;4.97;1.45;;;;;;;;;;4910450;29;20462;-62
2021/05/27 09:50:58;;;;;;;3.53;1.08;;;;;;;;;;4923486;28;20035;-62
2021/05/27 09:53:27;;;;;;;8.27;1.20;;;;;;;;;;4906746;29;20076;-60
2021/05/27 09:55:58;;;;;;;13.95;1.40;;;;;;;;;;4910150;29;21007;-64
2021/05/27 09:58:25;;;;;;;5.28;1.08;;;;;;;;;;4908660;29;20031;-60
2021/05/27 10:00:53;;;;;;;9.07;1.83;;;;;;;;;;4907923;29;20035;-62
2021/05/27 10:03:25;;;;;;;4.25;1.08;;;;;;;;;;4890086;29;20449;-61
2021/05/27 10:05:54;;;;;;;6.10;1.48;;;;;;;;;;4909836;29;20083;-62
2021/05/27 10:08:20;;;;;;;2.38;0.95;;;;;;;;;;4905694;29;20836;-60
2021/05/27 10:10:50;;;;;;;7.03;1.23;;;;;;;;;;4907184;29;20118;-62
2021/05/27 10:13:23;;;;;;;5.72;0.80;;;;;;;;;;4907702;29;20031;-61
2021/05/27 10:15:49;;;;;;;6.65;1.15;;;;;;;;;;4907083;29;20039;-61
2021/05/27 10:18:17;;;;;;;2.80;1.10;;;;;;;;;;4908652;29;20460;-61
2021/05/27 10:20:48;;;;;;;4.90;1.30;;;;;;;;;;4908372;29;20032;-64
2021/05/27 10:23:22;;;;;;;4.25;1.15;;;;;;;;;;4909492;29;20080;-60
2021/05/27 10:25:50;;;;;;;7.30;1.15;;;;;;;;;;4909315;29;20107;-61
2021/05/27 10:28:17;;;;;;;6.03;1.48;;;;;;;;;;4907025;29;20083;-60
2021/05/27 10:30:44;;;;;;;2.67;1.10;;;;;;;;;;4909540;29;20062;-60
2021/05/27 10:33:19;;;;;;;6.22;1.52;;;;;;;;;;4907363;29;20062;-61
2021/05/27 10:35:45;;;;;;;5.63;1.10;;;;;;;;;;4903957;29;20472;-60
2021/05/27 10:38:13;;;;;;;3.83;1.10;;;;;;;;;;4909722;29;20055;-61
2021/05/27 10:40:42;;;;;;;7.95;0.90;;;;;;;;;;4912909;29;20941;-59
2021/05/27 10:43:14;;;;;;;4.55;1.10;;;;;;;;;;4906659;29;20032;-60
2021/05/27 10:45:59;;;;;;;8.38;1.08;;;;;;;;;;4890471;29;20040;-61
2021/05/27 10:48:28;;;;;;;3.40;0.85;;;;;;;;;;4906133;29;20032;-61
2021/05/27 10:53:41;;;;;;;10.63;1.85;;;;;;;;;;4922516;28;20888;-61
2021/05/27 10:56:15;;;;;;;6.68;0.90;;;;;;;;;;4903796;29;20035;-60
2021/05/27 10:58:49;;;;;;;6.65;1.30;;;;;;;;;;4921686;28;20133;-60
2021/05/27 11:01:15;;;;;;;;;;;;;;;;;;4909092;29;20452;-61
2021/05/27 11:03:50;;;;;;;4.38;0.95;;;;;;;;;;4906827;29;19918;-63
2021/05/27 11:06:21;;;;;;;5.60;1.42;;;;;;;;;;4908712;29;20034;-62
2021/05/27 11:08:50;;;;;;;5.60;1.08;;;;;;;;;;4908915;29;20152;-60
2021/05/27 11:11:36;;;;;;;10.00;1.75;;;;;;;;;;4908551;29;20044;-61
2021/05/27 11:14:21;;;;;;;5.93;1.27;;;;;;;;;;4907894;29;20039;-60
2021/05/27 11:27:35;;;;;;;5.93;1.50;;;;;;;;;;4906848;29;20024;-60
2021/05/27 11:30:18;;;;;;;10.35;1.40;;;;;;;;;;4908101;28;20054;-59
2021/05/27 11:32:49;;;;;;;8.18;1.38;;;;;;;;;;4903120;29;20032;-59
2021/05/27 11:35:19;;;;;;;4.28;1.15;;;;;;;;;;4889992;29;20038;-61
2021/05/27 11:37:54;;;;;;;10.15;1.88;;;;;;;;;;4907871;29;20058;-59
2021/05/27 11:40:27;;;;;;;2.90;0.77;;;;;;;;;;4907430;29;20036;-60
2021/05/27 11:42:55;;;;;;;4.68;1.10;;;;;;;;;;4906411;29;20620;-60
2021/05/27 11:45:24;;;;;;;2.63;0.80;;;;;;;;;;4905821;29;20106;-61
2021/05/27 11:48:09;;;;;;;5.18;1.27;;;;;;;;;;4922621;28;20179;-61
2021/05/27 11:50:39;;;;;;;3.38;0.73;;;;;;;;;;4909409;29;20050;-61
2021/05/27 11:53:05;;;;;;;6.00;0.47;;;;;;;;;;4876196;29;20035;-61
2021/05/27 11:55:37;;;;;;;3.53;0.68;;;;;;;;;;4908390;29;20045;-60
2021/05/27 11:58:05;;;;;;;6.10;1.27;;;;;;;;;;4906524;29;20091;-60
2021/05/27 12:00:33;;;;;;;4.05;0.93;;;;;;;;;;4908439;29;20155;-60
2021/05/27 12:03:00;;;;;;;3.50;0.90;;;;;;;;;;4903567;29;20028;-63
2021/05/27 12:05:32;;;;;;;7.80;1.05;;;;;;;;;;4923579;28;20024;-61
2021/05/27 12:08:10;;;;;;;5.28;0.93;;;;;;;;;;4909158;29;20032;-62
2021/05/27 12:10:49;;;;;;;6.00;0.93;;;;;;;;;;4908430;29;20039;-61
2021/05/27 12:13:19;;;;;;;6.47;1.30;;;;;;;;;;4907809;29;20134;-62
2021/05/27 12:15:45;;;;;;;7.68;1.25;;;;;;;;;;4906011;29;20039;-61
2021/05/27 12:18:14;;;;;;;13.35;1.60;;;;;;;;;;4905068;29;20071;-61
2021/05/27 12:20:42;;;;;;;12.15;1.73;;;;;;;;;;4920136;28;20048;-61
2021/05/27 12:23:11;;;;;;;5.68;1.65;;;;;;;;;;4906122;29;20039;-59
2021/05/27 12:25:43;;;;;;;11.50;1.48;;;;;;;;;;4907869;29;20042;-61
2021/05/27 12:28:12;;;;;;;8.85;1.90;;;;;;;;;;4918520;28;20043;-61
2021/05/27 12:30:43;;;;;;;7.18;1.45;;;;;;;;;;4907328;29;20177;-61
2021/05/27 12:33:17;;;;;;;5.97;1.40;;;;;;;;;;4906752;29;20170;-62
2021/05/27 12:35:43;;;;;;;6.35;1.40;;;;;;;;;;4907010;29;20115;-60
2021/05/27 12:38:28;;;;;;;7.63;1.35;;;;;;;;;;4905931;29;20052;-62
2021/05/27 12:40:54;;;;;;;7.15;1.70;;;;;;;;;;4921447;28;20070;-60
2021/05/27 12:43:28;;;;;;;8.32;1.63;;;;;;;;;;4904889;29;20027;-61
2021/05/27 12:45:57;;;;;;;6.38;1.38;;;;;;;;;;4903698;29;20062;-61
2021/05/27 12:48:26;;;;;;;10.13;1.38;;;;;;;;;;4904784;29;20038;-62
2021/05/27 12:51:02;;;;;;;7.38;1.63;;;;;;;;;;4906198;29;20503;-61
2021/05/27 12:53:33;;;;;;;6.10;1.00;;;;;;;;;;4907484;29;20764;-62
2021/05/27 12:56:19;;;;;;;6.93;1.05;;;;;;;;;;4891565;29;20048;-61
2021/05/27 12:58:48;;;;;;;8.02;1.33;;;;;;;;;;4904168;29;20051;-61
2021/05/27 13:01:17;;;;;;;4.65;1.25;;;;;;;;;;4905970;29;20388;-64
2021/05/27 13:03:52;;;;;;;5.73;1.00;;;;;;;;;;4920321;28;20058;-61
2021/05/27 13:06:19;;;;;;;12.40;1.92;;;;;;;;;;4904737;29;20327;-60
2021/05/27 13:08:45;;;;;;;10.20;2.05;;;;;;;;;;4919598;28;20040;-62
2021/05/27 13:11:24;;;;;;;5.65;1.35;;;;;;;;;;4906957;29;20050;-61
2021/05/27 13:13:52;;;;;;;13.82;1.75;;;;;;;;;;4905342;29;20035;-61
2021/05/27 13:16:33;;;;;;;9.07;2.03;;;;;;;;;;4905856;29;20053;-61
2021/05/27 13:19:02;;;;;;;8.75;2.00;;;;;;;;;;4907528;29;20035;-60
2021/05/27 13:21:41;;;;;;;12.90;2.03;;;;;;;;;;4906732;29;20122;-60
2021/05/27 13:24:13;;;;;;;10.82;1.80;;;;;;;;;;4907120;29;20032;-60
2021/05/27 13:26:39;;;;;;;7.35;1.52;;;;;;;;;;4906717;29;20775;-61
2021/05/27 13:29:08;;;;;;;6.57;1.88;;;;;;;;;;4902774;29;20043;-61
2021/05/27 13:31:42;;;;;;;7.90;1.20;;;;;;;;;;4905529;29;20865;-61
2021/05/27 13:34:10;;;;;;;7.80;1.00;;;;;;;;;;4904900;29;20035;-61
2021/05/27 13:36:43;;;;;;;9.80;1.35;;;;;;;;;;4919797;28;21984;-62
2021/05/27 13:39:18;;;;;;;13.55;1.17;;;;;;;;;;4891278;29;20047;-61
2021/05/27 13:41:48;;;;;;;1.90;1.00;;;;;;;;;;4904552;29;20906;-60
2021/05/27 13:44:19;;;;;;;13.23;1.73;;;;;;;;;;4904415;29;20087;-59
2021/05/27 13:46:52;;;;;;;10.48;1.50;;;;;;;;;;4904812;29;20031;-61
2021/05/27 13:49:23;;;;;;;16.92;1.50;;;;;;;;;;4905632;29;20447;-64
2021/05/27 13:51:54;;;;;;;8.18;1.77;;;;;;;;;;4919578;28;20073;-61
2021/05/27 13:54:23;;;;;;;2.95;1.10;;;;;;;;;;4902565;29;20040;-60
2021/05/27 13:56:50;;;;;;;7.60;1.35;;;;;;;;;;4906443;29;20032;-61
2021/05/27 13:59:16;;;;;;;4.70;1.15;;;;;;;;;;4903098;29;20047;-60
2021/05/27 14:01:42;;;;;;;11.40;1.60;;;;;;;;;;4906585;29;20036;-61
2021/05/27 14:04:08;;;;;;;7.90;0.90;;;;;;;;;;4907009;29;20043;-60
2021/05/27 14:06:35;;;;;;;3.75;0.77;;;;;;;;;;4908088;29;20816;-61
2021/05/27 14:09:06;;;;;;;4.75;1.02;;;;;;;;;;4906747;29;20036;-60
2021/05/27 14:11:32;;;;;;;9.55;1.13;;;;;;;;;;4907764;29;20039;-61
2021/05/27 14:13:57;;;;;;;3.30;1.23;;;;;;;;;;4905749;29;20098;-60
2021/05/27 14:16:23;;;;;;;8.38;1.30;;;;;;;;;;4906502;29;20162;-61
2021/05/27 14:18:49;;;;;;;12.25;1.67;;;;;;;;;;4891373;29;20064;-62
2021/05/27 14:21:14;;;;;;;9.23;1.48;;;;;;;;;;4891847;29;20042;-61
2021/05/27 14:23:40;;;;;;;7.25;1.15;;;;;;;;;;4907170;29;20032;-62
2021/05/27 14:26:06;;;;;;;2.45;0.50;;;;;;;;;;4897946;29;20039;-61
2021/05/27 14:28:34;;;;;;;2.13;0.52;;;;;;;;;;4904946;29;20193;-59
2021/05/27 14:31:00;;;;;;;4.28;0.70;;;;;;;;;;4906364;29;20047;-61
2021/05/27 14:33:26;;;;;;;4.75;1.20;;;;;;;;;;4906028;29;20118;-61
2021/05/27 14:35:54;;;;;;;13.40;1.52;;;;;;;;;;4906942;29;20073;-61
2021/05/27 14:38:20;;;;;;;9.85;1.00;;;;;;;;;;4893045;29;20043;-61
2021/05/27 14:40:45;;;;;;;4.47;1.00;;;;;;;;;;4893930;29;20043;-61
2021/05/27 14:43:11;;;;;;;5.07;1.10;;;;;;;;;;4909047;29;20047;-61
2021/05/27 14:45:39;;;;;;;2.72;0.80;;;;;;;;;;4891409;29;21055;-60
2021/05/27 14:48:08;;;;;;;6.38;1.45;;;;;;;;;;4922381;28;20119;-60
2021/05/27 14:50:33;;;;;;;2.22;0.80;;;;;;;;;;4891887;29;20046;-60
2021/05/27 14:53:03;;;;;;;7.22;1.13;;;;;;;;;;4906694;29;20040;-62
2021/05/27 14:55:31;;;;;;;3.03;0.95;;;;;;;;;;4893347;29;20043;-61
2021/05/27 14:57:57;;;;;;;5.88;1.10;;;;;;;;;;4908332;29;20039;-61
2021/05/27 15:00:23;;;;;;;7.97;0.90;;;;;;;;;;4907593;29;20043;-60
2021/05/27 15:02:51;;;;;;;4.25;1.00;;;;;;;;;;4923133;28;20034;-59
2021/05/27 15:05:22;;;;;;;6.53;1.02;;;;;;;;;;4913374;28;20082;-60
2021/05/27 15:07:49;;;;;;;4.10;1.63;;;;;;;;;;4922697;29;20065;-60
2021/05/27 15:10:15;;;;;;;9.35;2.72;;;;;;;;;;4910456;29;20059;-60
2021/05/27 15:12:41;;;;;;;8.32;1.55;;;;;;;;;;4903857;29;20176;-59
2021/05/27 15:15:07;;;;;;;4.57;1.17;;;;;;;;;;4904690;29;20076;-60